sensor_id;sensor_type;location;lat;lon;timestamp;P1;durP1;ratioP1;P2;durP2;ratioP2
16031;SDS011;8120;48.308;8.914;2023-04-03T00:00:59;7.70;;;5.27;;
16031;SDS011;8120;48.308;8.914;2023-04-03T00:03:27;8.73;;;4.70;;
16031;SDS011;8120;48.308;8.914;2023-04-03T00:05:55;8.83;;;4.67;;
16031;SDS011;8120;48.308;8.914;2023-04-03T00:08:23;7.77;;;5.23;;
16031;SDS011;8120;48.308;8.914;2023-04-03T00:10:51;7.90;;;4.87;;
16031;SDS011;8120;48.308;8.914;2023-04-03T00:13:19;13.87;;;5.43;;
16031;SDS011;8120;48.308;8.914;2023-04-03T00:15:48;8.87;;;5.43;;
16031;SDS011;8120;48.308;8.914;2023-04-03T00:18:16;7.40;;;5.20;;
16031;SDS011;8120;48.308;8.914;2023-04-03T00:20:44;7.67;;;4.93;;
16031;SDS011;8120;48.308;8.914;2023-04-03T00:23:12;8.53;;;5.67;;
16031;SDS011;8120;48.308;8.914;2023-04-03T00:25:40;12.57;;;5.73;;
16031;SDS011;8120;48.308;8.914;2023-04-03T00:28:08;9.77;;;5.17;;
16031;SDS011;8120;48.308;8.914;2023-04-03T00:30:36;7.00;;;4.80;;
16031;SDS011;8120;48.308;8.914;2023-04-03T00:33:06;8.30;;;5.17;;
16031;SDS011;8120;48.308;8.914;2023-04-03T00:35:34;6.50;;;4.67;;
16031;SDS011;8120;48.308;8.914;2023-04-03T00:38:02;8.67;;;5.30;;
16031;SDS011;8120;48.308;8.914;2023-04-03T00:40:32;7.60;;;5.50;;
16031;SDS011;8120;48.308;8.914;2023-04-03T00:43:10;7.77;;;5.27;;
16031;SDS011;8120;48.308;8.914;2023-04-03T00:45:41;8.13;;;4.87;;
16031;SDS011;8120;48.308;8.914;2023-04-03T00:48:13;10.70;;;5.77;;
16031;SDS011;8120;48.308;8.914;2023-04-03T00:50:44;9.03;;;5.37;;
16031;SDS011;8120;48.308;8.914;2023-04-03T00:53:14;7.50;;;4.83;;
16031;SDS011;8120;48.308;8.914;2023-04-03T00:55:46;6.67;;;4.70;;
16031;SDS011;8120;48.308;8.914;2023-04-03T00:58:15;10.00;;;4.73;;
16031;SDS011;8120;48.308;8.914;2023-04-03T01:00:48;7.03;;;4.60;;
16031;SDS011;8120;48.308;8.914;2023-04-03T01:03:25;8.87;;;4.60;;
16031;SDS011;8120;48.308;8.914;2023-04-03T01:05:52;8.33;;;5.20;;
16031;SDS011;8120;48.308;8.914;2023-04-03T01:08:20;9.20;;;5.13;;
16031;SDS011;8120;48.308;8.914;2023-04-03T01:10:49;7.07;;;5.10;;
16031;SDS011;8120;48.308;8.914;2023-04-03T01:13:18;8.87;;;4.93;;
16031;SDS011;8120;48.308;8.914;2023-04-03T01:15:51;9.37;;;5.80;;
16031;SDS011;8120;48.308;8.914;2023-04-03T01:18:20;7.40;;;4.97;;
16031;SDS011;8120;48.308;8.914;2023-04-03T01:24:10;8.63;;;5.23;;
16031;SDS011;8120;48.308;8.914;2023-04-03T01:26:47;9.87;;;5.47;;
16031;SDS011;8120;48.308;8.914;2023-04-03T01:29:16;9.50;;;4.57;;
16031;SDS011;8120;48.308;8.914;2023-04-03T01:31:47;7.30;;;4.70;;
16031;SDS011;8120;48.308;8.914;2023-04-03T01:34:16;7.90;;;5.03;;
16031;SDS011;8120;48.308;8.914;2023-04-03T01:36:44;7.67;;;4.80;;
16031;SDS011;8120;48.308;8.914;2023-04-03T01:39:12;7.73;;;4.83;;
16031;SDS011;8120;48.308;8.914;2023-04-03T01:41:40;8.10;;;5.30;;
16031;SDS011;8120;48.308;8.914;2023-04-03T01:44:09;7.97;;;5.87;;
16031;SDS011;8120;48.308;8.914;2023-04-03T01:46:37;8.83;;;4.90;;
16031;SDS011;8120;48.308;8.914;2023-04-03T01:49:06;7.03;;;4.03;;
16031;SDS011;8120;48.308;8.914;2023-04-03T01:51:34;9.07;;;5.10;;
16031;SDS011;8120;48.308;8.914;2023-04-03T01:54:02;6.60;;;4.63;;
16031;SDS011;8120;48.308;8.914;2023-04-03T01:56:30;9.43;;;4.90;;
16031;SDS011;8120;48.308;8.914;2023-04-03T01:58:58;7.73;;;4.70;;
16031;SDS011;8120;48.308;8.914;2023-04-03T02:01:25;6.20;;;3.70;;
16031;SDS011;8120;48.308;8.914;2023-04-03T02:03:53;9.87;;;5.10;;
16031;SDS011;8120;48.308;8.914;2023-04-03T02:06:23;7.67;;;4.90;;
16031;SDS011;8120;48.308;8.914;2023-04-03T02:08:51;7.17;;;4.53;;
16031;SDS011;8120;48.308;8.914;2023-04-03T02:11:19;8.40;;;4.60;;
16031;SDS011;8120;48.308;8.914;2023-04-03T02:13:47;6.40;;;4.20;;
16031;SDS011;8120;48.308;8.914;2023-04-03T02:16:15;8.00;;;4.93;;
16031;SDS011;8120;48.308;8.914;2023-04-03T02:18:43;8.93;;;5.53;;
16031;SDS011;8120;48.308;8.914;2023-04-03T02:21:10;6.77;;;4.77;;
16031;SDS011;8120;48.308;8.914;2023-04-03T02:23:40;6.97;;;4.43;;
16031;SDS011;8120;48.308;8.914;2023-04-03T02:26:08;6.87;;;4.80;;
16031;SDS011;8120;48.308;8.914;2023-04-03T02:28:37;7.53;;;4.60;;
16031;SDS011;8120;48.308;8.914;2023-04-03T02:31:05;7.13;;;4.83;;
16031;SDS011;8120;48.308;8.914;2023-04-03T02:33:34;9.40;;;5.33;;
16031;SDS011;8120;48.308;8.914;2023-04-03T02:36:03;8.53;;;5.27;;
16031;SDS011;8120;48.308;8.914;2023-04-03T02:38:32;8.27;;;5.37;;
16031;SDS011;8120;48.308;8.914;2023-04-03T02:41:02;7.50;;;4.53;;
16031;SDS011;8120;48.308;8.914;2023-04-03T02:43:31;7.63;;;3.93;;
16031;SDS011;8120;48.308;8.914;2023-04-03T02:45:59;7.70;;;4.93;;
16031;SDS011;8120;48.308;8.914;2023-04-03T02:48:27;7.80;;;4.63;;
16031;SDS011;8120;48.308;8.914;2023-04-03T02:50:55;6.43;;;4.00;;
16031;SDS011;8120;48.308;8.914;2023-04-03T02:53:23;8.30;;;4.97;;
16031;SDS011;8120;48.308;8.914;2023-04-03T02:55:51;8.00;;;4.33;;
16031;SDS011;8120;48.308;8.914;2023-04-03T02:58:20;7.20;;;4.33;;
16031;SDS011;8120;48.308;8.914;2023-04-03T03:00:48;7.13;;;4.70;;
16031;SDS011;8120;48.308;8.914;2023-04-03T03:03:16;7.67;;;4.90;;
16031;SDS011;8120;48.308;8.914;2023-04-03T03:05:44;7.60;;;4.80;;
16031;SDS011;8120;48.308;8.914;2023-04-03T03:08:11;7.17;;;4.27;;
16031;SDS011;8120;48.308;8.914;2023-04-03T03:10:39;7.57;;;4.77;;
16031;SDS011;8120;48.308;8.914;2023-04-03T03:13:07;8.93;;;4.67;;
16031;SDS011;8120;48.308;8.914;2023-04-03T03:15:36;5.97;;;4.03;;
16031;SDS011;8120;48.308;8.914;2023-04-03T03:18:04;6.43;;;4.27;;
16031;SDS011;8120;48.308;8.914;2023-04-03T03:20:32;6.93;;;4.30;;
16031;SDS011;8120;48.308;8.914;2023-04-03T03:23:00;8.90;;;4.50;;
16031;SDS011;8120;48.308;8.914;2023-04-03T03:25:28;6.80;;;4.40;;
16031;SDS011;8120;48.308;8.914;2023-04-03T03:27:56;9.20;;;4.83;;
16031;SDS011;8120;48.308;8.914;2023-04-03T03:30:24;7.07;;;4.53;;
16031;SDS011;8120;48.308;8.914;2023-04-03T03:32:53;8.17;;;4.80;;
16031;SDS011;8120;48.308;8.914;2023-04-03T03:35:21;8.70;;;5.37;;
16031;SDS011;8120;48.308;8.914;2023-04-03T03:37:49;7.97;;;4.57;;
16031;SDS011;8120;48.308;8.914;2023-04-03T03:40:17;6.87;;;4.77;;
16031;SDS011;8120;48.308;8.914;2023-04-03T03:42:44;7.70;;;4.87;;
16031;SDS011;8120;48.308;8.914;2023-04-03T03:45:13;8.20;;;4.40;;
16031;SDS011;8120;48.308;8.914;2023-04-03T03:47:40;7.17;;;4.60;;
16031;SDS011;8120;48.308;8.914;2023-04-03T03:50:10;8.77;;;4.47;;
16031;SDS011;8120;48.308;8.914;2023-04-03T03:52:38;8.50;;;4.63;;
16031;SDS011;8120;48.308;8.914;2023-04-03T03:55:06;6.57;;;4.70;;
16031;SDS011;8120;48.308;8.914;2023-04-03T03:57:34;7.90;;;4.97;;
16031;SDS011;8120;48.308;8.914;2023-04-03T04:00:03;8.20;;;5.07;;
16031;SDS011;8120;48.308;8.914;2023-04-03T04:02:33;7.03;;;4.07;;
16031;SDS011;8120;48.308;8.914;2023-04-03T04:05:01;8.67;;;4.80;;
16031;SDS011;8120;48.308;8.914;2023-04-03T04:07:30;8.37;;;4.43;;
16031;SDS011;8120;48.308;8.914;2023-04-03T04:09:58;7.43;;;4.90;;
16031;SDS011;8120;48.308;8.914;2023-04-03T04:12:26;8.63;;;4.57;;
16031;SDS011;8120;48.308;8.914;2023-04-03T04:14:54;7.67;;;4.73;;
16031;SDS011;8120;48.308;8.914;2023-04-03T04:17:22;9.23;;;5.10;;
16031;SDS011;8120;48.308;8.914;2023-04-03T04:19:50;7.60;;;4.67;;
16031;SDS011;8120;48.308;8.914;2023-04-03T04:22:17;7.60;;;4.90;;
16031;SDS011;8120;48.308;8.914;2023-04-03T04:24:47;7.50;;;4.93;;
16031;SDS011;8120;48.308;8.914;2023-04-03T04:27:15;7.03;;;4.63;;
16031;SDS011;8120;48.308;8.914;2023-04-03T04:29:42;7.43;;;4.57;;
16031;SDS011;8120;48.308;8.914;2023-04-03T04:32:10;9.07;;;5.53;;
16031;SDS011;8120;48.308;8.914;2023-04-03T04:34:38;7.77;;;4.63;;
16031;SDS011;8120;48.308;8.914;2023-04-03T04:37:06;7.30;;;4.60;;
16031;SDS011;8120;48.308;8.914;2023-04-03T04:39:34;9.20;;;5.77;;
16031;SDS011;8120;48.308;8.914;2023-04-03T04:42:04;9.83;;;4.73;;
16031;SDS011;8120;48.308;8.914;2023-04-03T04:44:33;7.13;;;4.67;;
16031;SDS011;8120;48.308;8.914;2023-04-03T04:47:01;8.33;;;5.30;;
16031;SDS011;8120;48.308;8.914;2023-04-03T04:49:28;8.03;;;5.40;;
16031;SDS011;8120;48.308;8.914;2023-04-03T04:51:56;7.17;;;4.70;;
16031;SDS011;8120;48.308;8.914;2023-04-03T04:54:24;9.50;;;5.37;;
16031;SDS011;8120;48.308;8.914;2023-04-03T04:56:52;8.17;;;5.40;;
16031;SDS011;8120;48.308;8.914;2023-04-03T04:59:21;8.27;;;5.10;;
16031;SDS011;8120;48.308;8.914;2023-04-03T05:01:49;8.60;;;5.53;;
16031;SDS011;8120;48.308;8.914;2023-04-03T05:04:17;7.97;;;4.77;;
16031;SDS011;8120;48.308;8.914;2023-04-03T05:06:45;9.33;;;4.90;;
16031;SDS011;8120;48.308;8.914;2023-04-03T05:09:13;8.20;;;3.90;;
16031;SDS011;8120;48.308;8.914;2023-04-03T05:11:41;10.10;;;4.80;;
16031;SDS011;8120;48.308;8.914;2023-04-03T05:14:09;7.73;;;4.10;;
16031;SDS011;8120;48.308;8.914;2023-04-03T05:16:38;7.47;;;4.03;;
16031;SDS011;8120;48.308;8.914;2023-04-03T05:19:06;7.13;;;5.10;;
16031;SDS011;8120;48.308;8.914;2023-04-03T05:21:34;9.40;;;4.30;;
16031;SDS011;8120;48.308;8.914;2023-04-03T05:24:02;5.80;;;3.53;;
16031;SDS011;8120;48.308;8.914;2023-04-03T05:26:30;4.90;;;3.17;;
16031;SDS011;8120;48.308;8.914;2023-04-03T05:28:58;6.23;;;3.87;;
16031;SDS011;8120;48.308;8.914;2023-04-03T05:31:26;4.80;;;3.33;;
16031;SDS011;8120;48.308;8.914;2023-04-03T05:33:57;5.43;;;3.80;;
16031;SDS011;8120;48.308;8.914;2023-04-03T05:36:25;5.73;;;3.10;;
16031;SDS011;8120;48.308;8.914;2023-04-03T05:38:53;6.40;;;3.43;;
16031;SDS011;8120;48.308;8.914;2023-04-03T05:41:22;5.90;;;3.30;;
16031;SDS011;8120;48.308;8.914;2023-04-03T05:43:50;4.77;;;3.30;;
16031;SDS011;8120;48.308;8.914;2023-04-03T05:46:19;12.17;;;3.90;;
16031;SDS011;8120;48.308;8.914;2023-04-03T05:48:48;6.50;;;3.57;;
16031;SDS011;8120;48.308;8.914;2023-04-03T05:51:18;4.60;;;3.27;;
16031;SDS011;8120;48.308;8.914;2023-04-03T05:53:48;5.27;;;3.47;;
16031;SDS011;8120;48.308;8.914;2023-04-03T05:56:22;4.73;;;3.40;;
16031;SDS011;8120;48.308;8.914;2023-04-03T05:58:50;2.90;;;2.60;;
16031;SDS011;8120;48.308;8.914;2023-04-03T06:01:17;5.47;;;3.23;;
16031;SDS011;8120;48.308;8.914;2023-04-03T06:03:45;5.03;;;3.20;;
16031;SDS011;8120;48.308;8.914;2023-04-03T06:06:13;4.37;;;3.07;;
16031;SDS011;8120;48.308;8.914;2023-04-03T06:08:43;5.47;;;3.13;;
16031;SDS011;8120;48.308;8.914;2023-04-03T06:11:12;6.53;;;3.40;;
16031;SDS011;8120;48.308;8.914;2023-04-03T06:13:40;3.67;;;2.70;;
16031;SDS011;8120;48.308;8.914;2023-04-03T06:16:08;2.73;;;2.30;;
16031;SDS011;8120;48.308;8.914;2023-04-03T06:18:36;5.27;;;3.10;;
16031;SDS011;8120;48.308;8.914;2023-04-03T06:21:04;5.17;;;3.20;;
16031;SDS011;8120;48.308;8.914;2023-04-03T06:23:33;4.13;;;2.37;;
16031;SDS011;8120;48.308;8.914;2023-04-03T06:26:03;5.30;;;2.67;;
16031;SDS011;8120;48.308;8.914;2023-04-03T06:28:31;4.63;;;2.57;;
16031;SDS011;8120;48.308;8.914;2023-04-03T06:30:59;2.67;;;1.60;;
16031;SDS011;8120;48.308;8.914;2023-04-03T06:33:27;2.97;;;2.27;;
16031;SDS011;8120;48.308;8.914;2023-04-03T06:35:56;2.83;;;2.37;;
16031;SDS011;8120;48.308;8.914;2023-04-03T06:38:25;3.50;;;2.30;;
16031;SDS011;8120;48.308;8.914;2023-04-03T06:40:52;2.20;;;1.90;;
16031;SDS011;8120;48.308;8.914;2023-04-03T06:43:23;2.20;;;1.23;;
16031;SDS011;8120;48.308;8.914;2023-04-03T06:45:51;3.00;;;2.30;;
16031;SDS011;8120;48.308;8.914;2023-04-03T06:48:19;3.87;;;2.40;;
16031;SDS011;8120;48.308;8.914;2023-04-03T06:50:47;4.37;;;2.40;;
16031;SDS011;8120;48.308;8.914;2023-04-03T06:53:15;3.53;;;2.20;;
16031;SDS011;8120;48.308;8.914;2023-04-03T06:55:43;2.97;;;2.07;;
16031;SDS011;8120;48.308;8.914;2023-04-03T06:58:11;2.47;;;1.80;;
16031;SDS011;8120;48.308;8.914;2023-04-03T07:00:40;4.40;;;2.30;;
16031;SDS011;8120;48.308;8.914;2023-04-03T07:03:08;3.57;;;2.33;;
16031;SDS011;8120;48.308;8.914;2023-04-03T07:05:36;3.50;;;2.33;;
16031;SDS011;8120;48.308;8.914;2023-04-03T07:08:04;10.63;;;3.03;;
16031;SDS011;8120;48.308;8.914;2023-04-03T07:10:32;5.40;;;3.50;;
16031;SDS011;8120;48.308;8.914;2023-04-03T07:13:00;2.33;;;1.90;;
16031;SDS011;8120;48.308;8.914;2023-04-03T07:15:28;2.63;;;1.83;;
16031;SDS011;8120;48.308;8.914;2023-04-03T07:17:57;2.23;;;1.83;;
16031;SDS011;8120;48.308;8.914;2023-04-03T07:20:25;3.57;;;2.33;;
16031;SDS011;8120;48.308;8.914;2023-04-03T07:22:54;5.03;;;2.30;;
16031;SDS011;8120;48.308;8.914;2023-04-03T07:25:21;2.43;;;1.70;;
16031;SDS011;8120;48.308;8.914;2023-04-03T07:27:49;2.77;;;1.80;;
16031;SDS011;8120;48.308;8.914;2023-04-03T07:30:17;2.67;;;2.03;;
16031;SDS011;8120;48.308;8.914;2023-04-03T07:32:45;2.27;;;1.87;;
16031;SDS011;8120;48.308;8.914;2023-04-03T07:35:14;2.30;;;1.70;;
16031;SDS011;8120;48.308;8.914;2023-04-03T07:37:43;4.77;;;2.40;;
16031;SDS011;8120;48.308;8.914;2023-04-03T07:40:11;3.97;;;2.57;;
16031;SDS011;8120;48.308;8.914;2023-04-03T07:42:39;2.50;;;1.83;;
16031;SDS011;8120;48.308;8.914;2023-04-03T07:45:07;1.70;;;1.50;;
16031;SDS011;8120;48.308;8.914;2023-04-03T07:47:35;3.07;;;1.80;;
16031;SDS011;8120;48.308;8.914;2023-04-03T07:50:03;2.87;;;1.80;;
16031;SDS011;8120;48.308;8.914;2023-04-03T07:52:33;3.83;;;2.10;;
16031;SDS011;8120;48.308;8.914;2023-04-03T07:55:01;6.37;;;2.63;;
16031;SDS011;8120;48.308;8.914;2023-04-03T07:57:29;3.87;;;2.20;;
16031;SDS011;8120;48.308;8.914;2023-04-03T07:59:57;4.10;;;2.60;;
16031;SDS011;8120;48.308;8.914;2023-04-03T08:02:24;3.57;;;2.07;;
16031;SDS011;8120;48.308;8.914;2023-04-03T08:04:53;3.87;;;3.17;;
16031;SDS011;8120;48.308;8.914;2023-04-03T08:07:21;7.97;;;3.30;;
16031;SDS011;8120;48.308;8.914;2023-04-03T08:09:50;3.70;;;2.30;;
16031;SDS011;8120;48.308;8.914;2023-04-03T08:12:18;4.13;;;2.57;;
16031;SDS011;8120;48.308;8.914;2023-04-03T08:14:46;4.77;;;3.03;;
16031;SDS011;8120;48.308;8.914;2023-04-03T08:17:14;3.90;;;2.57;;
16031;SDS011;8120;48.308;8.914;2023-04-03T08:19:42;3.93;;;2.40;;
16031;SDS011;8120;48.308;8.914;2023-04-03T08:22:10;7.20;;;2.73;;
16031;SDS011;8120;48.308;8.914;2023-04-03T08:24:37;5.23;;;3.13;;
16031;SDS011;8120;48.308;8.914;2023-04-03T08:27:23;4.27;;;2.47;;
16031;SDS011;8120;48.308;8.914;2023-04-03T08:29:50;4.10;;;3.07;;
16031;SDS011;8120;48.308;8.914;2023-04-03T08:32:18;4.00;;;2.30;;
16031;SDS011;8120;48.308;8.914;2023-04-03T08:34:46;5.60;;;2.97;;
16031;SDS011;8120;48.308;8.914;2023-04-03T08:37:14;5.60;;;2.83;;
16031;SDS011;8120;48.308;8.914;2023-04-03T08:39:42;3.47;;;2.30;;
16031;SDS011;8120;48.308;8.914;2023-04-03T08:42:13;4.13;;;2.47;;
16031;SDS011;8120;48.308;8.914;2023-04-03T08:44:48;5.17;;;2.50;;
16031;SDS011;8120;48.308;8.914;2023-04-03T08:47:23;3.30;;;2.43;;
16031;SDS011;8120;48.308;8.914;2023-04-03T08:49:56;3.03;;;2.37;;
16031;SDS011;8120;48.308;8.914;2023-04-03T08:52:27;3.33;;;2.30;;
16031;SDS011;8120;48.308;8.914;2023-04-03T08:55:02;8.03;;;2.63;;
16031;SDS011;8120;48.308;8.914;2023-04-03T08:57:33;3.47;;;2.50;;
16031;SDS011;8120;48.308;8.914;2023-04-03T09:00:05;4.00;;;2.47;;
16031;SDS011;8120;48.308;8.914;2023-04-03T09:02:43;4.40;;;2.63;;
16031;SDS011;8120;48.308;8.914;2023-04-03T09:05:15;4.17;;;2.53;;
16031;SDS011;8120;48.308;8.914;2023-04-03T09:07:45;3.63;;;2.50;;
16031;SDS011;8120;48.308;8.914;2023-04-03T09:10:15;4.60;;;2.57;;
16031;SDS011;8120;48.308;8.914;2023-04-03T09:12:52;4.90;;;2.50;;
16031;SDS011;8120;48.308;8.914;2023-04-03T09:15:26;4.80;;;2.97;;
16031;SDS011;8120;48.308;8.914;2023-04-03T09:18:05;4.77;;;2.57;;
16031;SDS011;8120;48.308;8.914;2023-04-03T09:20:40;2.67;;;2.30;;
16031;SDS011;8120;48.308;8.914;2023-04-03T09:23:15;4.43;;;2.50;;
16031;SDS011;8120;48.308;8.914;2023-04-03T09:25:49;3.30;;;2.70;;
16031;SDS011;8120;48.308;8.914;2023-04-03T09:28:21;4.47;;;2.30;;
16031;SDS011;8120;48.308;8.914;2023-04-03T09:30:50;5.53;;;2.70;;
16031;SDS011;8120;48.308;8.914;2023-04-03T09:33:18;4.17;;;2.30;;
16031;SDS011;8120;48.308;8.914;2023-04-03T09:35:48;4.87;;;3.27;;
16031;SDS011;8120;48.308;8.914;2023-04-03T09:38:18;3.57;;;2.80;;
16031;SDS011;8120;48.308;8.914;2023-04-03T09:40:48;4.27;;;2.77;;
16031;SDS011;8120;48.308;8.914;2023-04-03T09:43:23;4.03;;;2.83;;
16031;SDS011;8120;48.308;8.914;2023-04-03T09:45:55;3.93;;;2.80;;
16031;SDS011;8120;48.308;8.914;2023-04-03T09:48:52;4.70;;;2.90;;
16031;SDS011;8120;48.308;8.914;2023-04-03T09:51:34;5.30;;;3.00;;
16031;SDS011;8120;48.308;8.914;2023-04-03T09:54:24;4.17;;;2.53;;
16031;SDS011;8120;48.308;8.914;2023-04-03T09:57:01;5.23;;;2.50;;
16031;SDS011;8120;48.308;8.914;2023-04-03T09:59:31;3.07;;;2.50;;
16031;SDS011;8120;48.308;8.914;2023-04-03T10:02:02;4.37;;;2.63;;
16031;SDS011;8120;48.308;8.914;2023-04-03T10:04:37;4.43;;;2.87;;
16031;SDS011;8120;48.308;8.914;2023-04-03T10:09:58;4.20;;;3.20;;
16031;SDS011;8120;48.308;8.914;2023-04-03T10:12:29;5.17;;;2.93;;
16031;SDS011;8120;48.308;8.914;2023-04-03T10:14:57;4.90;;;2.80;;
16031;SDS011;8120;48.308;8.914;2023-04-03T10:17:31;4.23;;;2.93;;
16031;SDS011;8120;48.308;8.914;2023-04-03T10:20:10;4.30;;;2.70;;
16031;SDS011;8120;48.308;8.914;2023-04-03T10:22:55;4.43;;;2.80;;
16031;SDS011;8120;48.308;8.914;2023-04-03T10:25:30;4.70;;;2.97;;
16031;SDS011;8120;48.308;8.914;2023-04-03T10:28:06;3.40;;;2.57;;
16031;SDS011;8120;48.308;8.914;2023-04-03T10:30:41;6.03;;;2.50;;
16031;SDS011;8120;48.308;8.914;2023-04-03T10:33:26;5.03;;;3.07;;
16031;SDS011;8120;48.308;8.914;2023-04-03T10:36:07;6.50;;;2.67;;
16031;SDS011;8120;48.308;8.914;2023-04-03T10:38:48;5.23;;;2.83;;
16031;SDS011;8120;48.308;8.914;2023-04-03T10:41:27;4.47;;;2.80;;
16031;SDS011;8120;48.308;8.914;2023-04-03T10:44:00;5.57;;;3.57;;
16031;SDS011;8120;48.308;8.914;2023-04-03T10:46:36;4.97;;;3.00;;
16031;SDS011;8120;48.308;8.914;2023-04-03T10:49:13;4.33;;;2.60;;
16031;SDS011;8120;48.308;8.914;2023-04-03T10:51:48;3.90;;;2.33;;
16031;SDS011;8120;48.308;8.914;2023-04-03T10:54:22;5.37;;;3.10;;
16031;SDS011;8120;48.308;8.914;2023-04-03T10:56:53;5.33;;;3.30;;
16031;SDS011;8120;48.308;8.914;2023-04-03T10:59:38;6.73;;;3.77;;
16031;SDS011;8120;48.308;8.914;2023-04-03T11:02:13;5.07;;;2.90;;
16031;SDS011;8120;48.308;8.914;2023-04-03T11:04:50;5.80;;;3.07;;
16031;SDS011;8120;48.308;8.914;2023-04-03T11:07:22;4.87;;;3.10;;
16031;SDS011;8120;48.308;8.914;2023-04-03T11:09:54;7.63;;;3.50;;
16031;SDS011;8120;48.308;8.914;2023-04-03T11:12:26;5.60;;;3.80;;
16031;SDS011;8120;48.308;8.914;2023-04-03T11:15:00;3.57;;;2.57;;
16031;SDS011;8120;48.308;8.914;2023-04-03T11:17:31;4.83;;;3.30;;
16031;SDS011;8120;48.308;8.914;2023-04-03T11:20:06;4.97;;;3.17;;
16031;SDS011;8120;48.308;8.914;2023-04-03T11:22:43;3.97;;;3.07;;
16031;SDS011;8120;48.308;8.914;2023-04-03T11:25:17;5.90;;;3.53;;
16031;SDS011;8120;48.308;8.914;2023-04-03T11:27:49;5.23;;;2.90;;
16031;SDS011;8120;48.308;8.914;2023-04-03T11:30:22;3.57;;;2.50;;
16031;SDS011;8120;48.308;8.914;2023-04-03T11:32:59;4.87;;;2.90;;
16031;SDS011;8120;48.308;8.914;2023-04-03T11:35:43;5.60;;;2.83;;
16031;SDS011;8120;48.308;8.914;2023-04-03T11:38:14;3.70;;;2.60;;
16031;SDS011;8120;48.308;8.914;2023-04-03T11:40:48;3.70;;;2.63;;
16031;SDS011;8120;48.308;8.914;2023-04-03T11:43:21;4.03;;;2.90;;
16031;SDS011;8120;48.308;8.914;2023-04-03T11:45:55;3.83;;;2.60;;
16031;SDS011;8120;48.308;8.914;2023-04-03T11:48:42;3.87;;;2.67;;
16031;SDS011;8120;48.308;8.914;2023-04-03T12:12:57;4.60;;;2.30;;
16031;SDS011;8120;48.308;8.914;2023-04-03T12:24:36;3.87;;;2.60;;
16031;SDS011;8120;48.308;8.914;2023-04-03T12:27:17;4.00;;;2.43;;
16031;SDS011;8120;48.308;8.914;2023-04-03T12:29:51;4.13;;;2.70;;
16031;SDS011;8120;48.308;8.914;2023-04-03T12:32:24;4.33;;;2.33;;
16031;SDS011;8120;48.308;8.914;2023-04-03T12:35:09;6.63;;;2.77;;
16031;SDS011;8120;48.308;8.914;2023-04-03T12:37:49;3.00;;;2.10;;
16031;SDS011;8120;48.308;8.914;2023-04-03T12:40:30;3.73;;;2.40;;
16031;SDS011;8120;48.308;8.914;2023-04-03T12:43:18;3.40;;;2.40;;
16031;SDS011;8120;48.308;8.914;2023-04-03T12:46:00;4.53;;;2.67;;
16031;SDS011;8120;48.308;8.914;2023-04-03T12:48:32;2.47;;;2.10;;
16031;SDS011;8120;48.308;8.914;2023-04-03T12:51:14;4.10;;;2.77;;
16031;SDS011;8120;48.308;8.914;2023-04-03T12:53:44;6.93;;;3.10;;
16031;SDS011;8120;48.308;8.914;2023-04-03T12:56:20;3.40;;;2.40;;
16031;SDS011;8120;48.308;8.914;2023-04-03T12:58:50;4.20;;;2.50;;
16031;SDS011;8120;48.308;8.914;2023-04-03T13:01:21;6.00;;;2.53;;
16031;SDS011;8120;48.308;8.914;2023-04-03T13:03:51;3.57;;;2.30;;
16031;SDS011;8120;48.308;8.914;2023-04-03T13:06:21;6.83;;;2.73;;
16031;SDS011;8120;48.308;8.914;2023-04-03T13:08:52;4.63;;;2.83;;
16031;SDS011;8120;48.308;8.914;2023-04-03T13:11:24;6.43;;;2.67;;
16031;SDS011;8120;48.308;8.914;2023-04-03T13:13:55;6.07;;;3.07;;
16031;SDS011;8120;48.308;8.914;2023-04-03T13:16:24;4.70;;;2.50;;
16031;SDS011;8120;48.308;8.914;2023-04-03T13:18:53;4.30;;;2.20;;
16031;SDS011;8120;48.308;8.914;2023-04-03T13:21:22;2.80;;;2.10;;
16031;SDS011;8120;48.308;8.914;2023-04-03T13:23:52;4.60;;;2.60;;
16031;SDS011;8120;48.308;8.914;2023-04-03T13:26:41;3.87;;;2.30;;
16031;SDS011;8120;48.308;8.914;2023-04-03T13:29:17;3.47;;;1.93;;
16031;SDS011;8120;48.308;8.914;2023-04-03T13:31:56;3.53;;;2.30;;
16031;SDS011;8120;48.308;8.914;2023-04-03T13:34:27;3.30;;;2.70;;
16031;SDS011;8120;48.308;8.914;2023-04-03T13:36:59;3.80;;;2.20;;
16031;SDS011;8120;48.308;8.914;2023-04-03T13:39:30;3.53;;;2.27;;
16031;SDS011;8120;48.308;8.914;2023-04-03T13:42:01;4.23;;;2.43;;
16031;SDS011;8120;48.308;8.914;2023-04-03T13:44:42;3.23;;;2.20;;
16031;SDS011;8120;48.308;8.914;2023-04-03T13:47:17;4.67;;;2.17;;
16031;SDS011;8120;48.308;8.914;2023-04-03T13:49:58;4.33;;;2.77;;
16031;SDS011;8120;48.308;8.914;2023-04-03T13:52:29;3.80;;;2.83;;
16031;SDS011;8120;48.308;8.914;2023-04-03T13:55:03;2.73;;;2.30;;
16031;SDS011;8120;48.308;8.914;2023-04-03T13:58:20;1.63;;;1.53;;
16031;SDS011;8120;48.308;8.914;2023-04-03T14:00:50;6.93;;;2.67;;
16031;SDS011;8120;48.308;8.914;2023-04-03T14:03:21;3.67;;;2.90;;
16031;SDS011;8120;48.308;8.914;2023-04-03T14:05:52;2.93;;;1.90;;
16031;SDS011;8120;48.308;8.914;2023-04-03T14:08:21;3.37;;;2.50;;
16031;SDS011;8120;48.308;8.914;2023-04-03T14:11:08;9.27;;;3.20;;
16031;SDS011;8120;48.308;8.914;2023-04-03T14:13:43;6.07;;;3.10;;
16031;SDS011;8120;48.308;8.914;2023-04-03T14:16:13;4.57;;;2.97;;
16031;SDS011;8120;48.308;8.914;2023-04-03T14:18:43;5.43;;;3.47;;
16031;SDS011;8120;48.308;8.914;2023-04-03T14:21:12;5.67;;;3.90;;
16031;SDS011;8120;48.308;8.914;2023-04-03T14:23:41;3.43;;;2.73;;
16031;SDS011;8120;48.308;8.914;2023-04-03T14:26:10;3.63;;;2.70;;
16031;SDS011;8120;48.308;8.914;2023-04-03T14:28:40;3.13;;;2.20;;
16031;SDS011;8120;48.308;8.914;2023-04-03T14:31:12;2.63;;;2.10;;
16031;SDS011;8120;48.308;8.914;2023-04-03T14:33:41;4.63;;;2.40;;
16031;SDS011;8120;48.308;8.914;2023-04-03T14:36:11;3.53;;;1.90;;
16031;SDS011;8120;48.308;8.914;2023-04-03T14:38:41;4.43;;;2.37;;
16031;SDS011;8120;48.308;8.914;2023-04-03T14:41:10;3.07;;;2.47;;
16031;SDS011;8120;48.308;8.914;2023-04-03T14:43:42;4.50;;;2.63;;
16031;SDS011;8120;48.308;8.914;2023-04-03T14:46:14;4.23;;;2.97;;
16031;SDS011;8120;48.308;8.914;2023-04-03T14:48:44;3.33;;;1.93;;
16031;SDS011;8120;48.308;8.914;2023-04-03T14:51:13;3.23;;;1.80;;
16031;SDS011;8120;48.308;8.914;2023-04-03T14:53:42;3.73;;;2.20;;
16031;SDS011;8120;48.308;8.914;2023-04-03T14:56:13;4.57;;;2.70;;
16031;SDS011;8120;48.308;8.914;2023-04-03T14:58:43;4.33;;;2.40;;
16031;SDS011;8120;48.308;8.914;2023-04-03T15:01:11;3.43;;;2.00;;
16031;SDS011;8120;48.308;8.914;2023-04-03T15:03:41;3.93;;;2.20;;
16031;SDS011;8120;48.308;8.914;2023-04-03T15:06:10;3.33;;;2.40;;
16031;SDS011;8120;48.308;8.914;2023-04-03T15:08:40;8.43;;;2.50;;
16031;SDS011;8120;48.308;8.914;2023-04-03T15:11:09;4.83;;;2.40;;
16031;SDS011;8120;48.308;8.914;2023-04-03T15:13:38;3.33;;;2.17;;
16031;SDS011;8120;48.308;8.914;2023-04-03T15:16:10;4.40;;;2.33;;
16031;SDS011;8120;48.308;8.914;2023-04-03T15:18:44;2.73;;;2.07;;
16031;SDS011;8120;48.308;8.914;2023-04-03T15:21:12;4.13;;;2.33;;
16031;SDS011;8120;48.308;8.914;2023-04-03T15:23:41;4.10;;;2.60;;
16031;SDS011;8120;48.308;8.914;2023-04-03T15:26:09;3.10;;;2.40;;
16031;SDS011;8120;48.308;8.914;2023-04-03T15:28:37;6.57;;;2.70;;
16031;SDS011;8120;48.308;8.914;2023-04-03T15:31:07;2.43;;;2.00;;
16031;SDS011;8120;48.308;8.914;2023-04-03T15:33:35;5.90;;;2.50;;
16031;SDS011;8120;48.308;8.914;2023-04-03T15:36:05;5.30;;;2.27;;
16031;SDS011;8120;48.308;8.914;2023-04-03T15:38:53;3.10;;;2.20;;
16031;SDS011;8120;48.308;8.914;2023-04-03T15:41:21;5.07;;;2.73;;
16031;SDS011;8120;48.308;8.914;2023-04-03T15:43:49;4.47;;;2.93;;
16031;SDS011;8120;48.308;8.914;2023-04-03T15:46:17;4.90;;;2.63;;
16031;SDS011;8120;48.308;8.914;2023-04-03T15:48:45;3.57;;;2.07;;
16031;SDS011;8120;48.308;8.914;2023-04-03T15:51:14;5.97;;;2.80;;
16031;SDS011;8120;48.308;8.914;2023-04-03T15:53:42;3.23;;;2.73;;
16031;SDS011;8120;48.308;8.914;2023-04-03T15:56:10;7.90;;;2.20;;
16031;SDS011;8120;48.308;8.914;2023-04-03T15:58:38;5.33;;;2.80;;